Time;durP1;ratioP1;P1;durP2;ratioP2;P2;SDS_P1;SDS_P2;PMS_P1;PMS_P2;Temp;Humidity;BMP_temperature;BMP_pressure;BME280_temperature;BME280_humidity;BME280_pressure;Samples;Min_cycle;Max_cycle;Signal;HPM_P1;HPM_P2
2023/08/06 00:01:36;;;;;;;3.93;3.23;;;15.70;99.90;;;;;;6066546;23;20391;-75
2023/08/06 00:04:02;;;;;;;3.27;2.97;;;15.70;99.90;;;;;;6066261;23;20377;-75
2023/08/06 00:06:27;;;;;;;6.80;3.63;;;15.60;99.90;;;;;;6087072;23;20209;-73
2023/08/06 00:08:54;;;;;;;4.23;2.93;;;15.50;99.90;;;;;;6042417;23;20148;-76
2023/08/06 00:11:20;;;;;;;4.00;3.17;;;15.50;99.90;;;;;;6065532;23;20169;-74
2023/08/06 00:13:46;;;;;;;4.57;3.40;;;15.40;99.90;;;;;;6091832;23;20393;-74
2023/08/06 00:16:13;;;;;;;4.57;3.37;;;15.30;99.90;;;;;;6067460;23;20189;-74
2023/08/06 00:18:39;;;;;;;5.13;3.13;;;15.20;99.90;;;;;;6067145;23;20197;-74
2023/08/06 00:21:05;;;;;;;4.10;3.70;;;15.20;99.90;;;;;;6092172;23;20442;-76
2023/08/06 00:23:32;;;;;;;4.20;3.33;;;15.10;99.90;;;;;;6091634;23;20389;-75
2023/08/06 00:25:58;;;;;;;4.97;3.83;;;15.10;99.90;;;;;;6066224;23;20757;-73
2023/08/06 00:28:24;;;;;;;4.40;3.43;;;15.00;99.90;;;;;;6065215;23;20440;-75
2023/08/06 00:30:54;;;;;;;3.77;3.47;;;15.00;99.90;;;;;;6065573;23;20172;-73
2023/08/06 00:33:21;;;;;;;4.50;3.50;;;15.00;99.90;;;;;;6116353;23;20171;-74
2023/08/06 00:35:46;;;;;;;4.30;3.60;;;14.90;99.90;;;;;;6147670;23;20414;-74
2023/08/06 00:38:13;;;;;;;4.00;3.60;;;14.90;99.90;;;;;;6147008;23;20411;-75
2023/08/06 00:40:39;;;;;;;4.37;3.40;;;14.90;99.90;;;;;;6121722;23;20422;-73
2023/08/06 00:43:05;;;;;;;6.20;4.00;;;14.90;99.90;;;;;;6146632;23;20207;-73
2023/08/06 00:45:35;;;;;;;3.90;3.23;;;14.90;99.90;;;;;;6149077;23;20386;-73
2023/08/06 00:48:01;;;;;;;5.63;3.57;;;14.90;99.90;;;;;;6152255;23;20171;-74
2023/08/06 00:50:27;;;;;;;4.80;3.60;;;14.90;99.90;;;;;;6164355;23;20455;-72
2023/08/06 00:52:54;;;;;;;5.87;3.80;;;14.80;99.90;;;;;;6155162;23;20406;-74
2023/08/06 00:55:21;;;;;;;4.20;3.67;;;14.90;99.90;;;;;;6153173;23;20436;-73
2023/08/06 00:57:46;;;;;;;5.80;3.90;;;14.90;99.90;;;;;;6176231;23;20382;-73
2023/08/06 01:00:12;;;;;;;4.27;3.87;;;14.90;99.90;;;;;;6154187;23;20159;-75
2023/08/06 01:02:38;;;;;;;4.30;3.60;;;15.00;99.90;;;;;;6183347;23;20210;-73
2023/08/06 01:05:04;;;;;;;5.00;3.70;;;15.00;99.90;;;;;;6184566;23;20373;-75
2023/08/06 01:08:12;;;;;;;3.30;3.00;;;15.00;99.90;;;;;;6181871;23;20146;-74
2023/08/06 01:11:05;;;;;;;5.20;3.80;;;15.00;99.90;;;;;;6208882;23;20200;-75
2023/08/06 01:13:41;;;;;;;4.73;3.67;;;15.10;99.90;;;;;;6183652;23;20381;-74
2023/08/06 01:16:09;;;;;;;4.30;3.90;;;15.20;99.90;;;;;;6182902;23;20412;-75
2023/08/06 01:18:35;;;;;;;4.87;3.70;;;15.20;99.90;;;;;;6182553;23;20696;-74
2023/08/06 01:21:01;;;;;;;4.53;3.70;;;15.30;99.90;;;;;;6183055;23;20428;-74
2023/08/06 01:23:27;;;;;;;4.30;3.10;;;15.30;99.90;;;;;;6184119;23;20400;-73
2023/08/06 01:26:11;;;;;;;4.10;3.70;;;15.30;99.90;;;;;;6210192;23;20130;-74
2023/08/06 01:29:05;;;;;;;4.23;3.33;;;15.30;99.90;;;;;;6206514;23;20361;-74
2023/08/06 01:31:36;;;;;;;5.80;3.80;;;15.30;99.90;;;;;;6204242;23;20353;-76
2023/08/06 01:34:04;;;;;;;4.13;3.73;;;15.30;99.90;;;;;;6178588;23;20369;-74
2023/08/06 01:36:31;;;;;;;4.77;3.70;;;15.30;99.90;;;;;;6177809;23;20424;-74
2023/08/06 01:38:59;;;;;;;8.80;4.10;;;15.20;99.90;;;;;;6230479;23;20380;-72
2023/08/06 01:41:25;;;;;;;5.50;3.60;;;15.20;99.90;;;;;;6181817;23;20452;-76
2023/08/06 01:43:51;;;;;;;5.47;4.37;;;15.20;99.90;;;;;;6206016;23;20381;-73
2023/08/06 01:46:17;;;;;;;3.80;3.43;;;15.20;99.90;;;;;;6184449;23;20165;-74
2023/08/06 01:48:44;;;;;;;4.10;3.70;;;15.20;99.90;;;;;;6181045;23;20146;-73
2023/08/06 01:51:09;;;;;;;3.97;3.57;;;15.20;99.90;;;;;;6177296;23;20866;-73
2023/08/06 01:53:35;;;;;;;3.93;3.30;;;15.10;99.90;;;;;;6177707;23;20381;-74
2023/08/06 01:56:01;;;;;;;3.53;2.70;;;15.10;99.90;;;;;;6178300;23;20491;-74
2023/08/06 01:58:27;;;;;;;4.23;3.07;;;15.10;99.90;;;;;;6201653;23;20135;-75
2023/08/06 02:00:53;;;;;;;3.60;3.20;;;15.10;99.90;;;;;;6199465;23;20452;-73
2023/08/06 02:03:18;;;;;;;4.47;2.93;;;15.10;99.90;;;;;;6176727;23;20145;-73
2023/08/06 02:05:45;;;;;;;4.00;3.27;;;15.20;99.90;;;;;;6198086;23;20150;-73
2023/08/06 02:08:11;;;;;;;4.23;3.37;;;15.20;99.90;;;;;;6174294;23;20185;-71
2023/08/06 02:10:37;;;;;;;4.77;4.20;;;15.10;99.90;;;;;;6175129;23;20402;-76
2023/08/06 02:13:02;;;;;;;4.80;3.70;;;15.10;99.90;;;;;;6175226;23;20174;-74
2023/08/06 02:15:28;;;;;;;4.00;3.37;;;15.00;99.90;;;;;;6173604;23;20163;-73
2023/08/06 02:17:54;;;;;;;4.07;3.30;;;15.00;99.90;;;;;;6151295;23;20162;-74
2023/08/06 02:20:19;;;;;;;3.40;3.10;;;14.90;99.90;;;;;;6175761;23;20170;-72
2023/08/06 02:22:45;;;;;;;3.40;2.90;;;14.80;99.90;;;;;;6149835;23;20139;-74
2023/08/06 02:25:11;;;;;;;4.23;3.20;;;14.80;99.90;;;;;;6174445;23;20150;-74
2023/08/06 02:27:37;;;;;;;3.80;3.33;;;14.80;99.90;;;;;;6149640;23;20185;-74
2023/08/06 02:30:04;;;;;;;6.70;3.60;;;14.80;99.90;;;;;;6149106;23;20167;-75
2023/08/06 02:32:31;;;;;;;3.87;3.20;;;14.80;99.90;;;;;;6174287;23;20388;-74
2023/08/06 02:34:59;;;;;;;4.23;3.33;;;14.90;99.90;;;;;;6176795;23;20485;-74
2023/08/06 02:37:25;;;;;;;3.40;3.10;;;14.90;99.90;;;;;;6151864;23;20370;-73
2023/08/06 02:39:50;;;;;;;3.57;3.27;;;14.90;99.90;;;;;;6174618;23;20166;-72
2023/08/06 02:42:16;;;;;;;3.87;3.37;;;15.00;99.90;;;;;;6172928;23;20385;-73
2023/08/06 02:44:42;;;;;;;4.10;3.33;;;15.00;99.90;;;;;;6151153;23;20142;-73
2023/08/06 02:47:07;;;;;;;3.77;3.20;;;15.10;99.90;;;;;;6174133;23;20135;-73
2023/08/06 02:49:33;;;;;;;3.40;2.80;;;15.10;99.90;;;;;;6175323;23;20196;-73
2023/08/06 02:51:59;;;;;;;5.07;2.60;;;15.10;99.90;;;;;;6149043;23;20155;-72
2023/08/06 02:54:24;;;;;;;5.97;3.77;;;15.10;99.90;;;;;;6172414;23;20275;-74
2023/08/06 02:56:50;;;;;;;3.90;3.30;;;15.20;99.90;;;;;;6147239;23;20147;-71
2023/08/06 02:59:23;;;;;;;5.60;3.50;;;15.20;99.90;;;;;;6150200;23;20146;-74
2023/08/06 03:02:01;;;;;;;4.80;3.50;;;15.20;99.90;;;;;;6174895;23;20368;-73
2023/08/06 03:04:36;;;;;;;4.07;3.50;;;15.20;99.90;;;;;;6180227;23;20394;-73
2023/08/06 03:07:03;;;;;;;3.77;3.37;;;15.20;99.90;;;;;;6151769;23;20394;-73
2023/08/06 03:09:37;;;;;;;7.17;3.20;;;15.20;99.90;;;;;;6172847;23;20169;-72
2023/08/06 03:12:04;;;;;;;4.73;3.33;;;15.20;99.90;;;;;;6197402;23;20440;-74
2023/08/06 03:14:29;;;;;;;3.43;3.13;;;15.30;99.90;;;;;;6200132;23;20173;-75
2023/08/06 03:16:55;;;;;;;4.43;3.60;;;15.30;99.90;;;;;;6174236;23;20354;-75
2023/08/06 03:19:21;;;;;;;4.90;3.40;;;15.30;99.90;;;;;;6124359;23;20143;-73
2023/08/06 03:21:50;;;;;;;3.40;3.10;;;15.30;99.90;;;;;;6200135;23;20385;-73
2023/08/06 03:24:16;;;;;;;4.70;3.33;;;15.30;99.90;;;;;;6171785;23;20441;-75
2023/08/06 03:26:44;;;;;;;4.60;3.20;;;15.30;99.90;;;;;;6146246;23;20378;-73
2023/08/06 03:29:11;;;;;;;3.50;3.20;;;15.30;99.90;;;;;;6152869;23;20374;-73
2023/08/06 03:31:37;;;;;;;4.50;2.93;;;15.30;99.90;;;;;;6196150;23;20366;-73
2023/08/06 03:34:03;;;;;;;3.20;2.90;;;15.30;99.90;;;;;;6196343;23;20354;-73
2023/08/06 03:36:30;;;;;;;3.40;3.10;;;15.30;99.90;;;;;;6170401;23;20370;-72
2023/08/06 03:38:56;;;;;;;3.50;2.67;;;15.30;99.90;;;;;;6169515;23;20434;-73
2023/08/06 03:41:22;;;;;;;3.30;3.00;;;15.30;99.90;;;;;;6168951;23;20170;-73
2023/08/06 03:43:47;;;;;;;4.13;2.67;;;15.30;99.90;;;;;;6169414;23;20158;-74
2023/08/06 03:46:20;;;;;;;3.07;2.77;;;15.30;99.90;;;;;;6146118;23;20436;-74
2023/08/06 03:48:45;;;;;;;4.00;3.60;;;15.30;99.90;;;;;;6194544;23;20370;-74
2023/08/06 03:51:12;;;;;;;3.30;2.90;;;15.20;99.90;;;;;;6144664;23;20187;-74
2023/08/06 03:53:39;;;;;;;3.77;3.33;;;15.10;99.90;;;;;;6146675;23;20474;-73
2023/08/06 03:56:04;;;;;;;5.50;3.83;;;15.00;99.90;;;;;;6145818;23;20421;-72
2023/08/06 03:58:31;;;;;;;7.23;3.63;;;14.90;99.90;;;;;;6146616;23;20158;-73
2023/08/06 04:01:02;;;;;;;4.80;3.80;;;14.80;99.90;;;;;;6147249;23;20394;-76
2023/08/06 04:03:33;;;;;;;3.70;3.17;;;14.70;99.90;;;;;;6147317;23;20423;-73
2023/08/06 04:06:00;;;;;;;5.53;3.87;;;14.70;99.90;;;;;;6194646;23;20378;-73
2023/08/06 04:08:26;;;;;;;3.77;3.37;;;14.70;99.90;;;;;;6169988;23;20373;-74
2023/08/06 04:10:52;;;;;;;4.40;3.43;;;14.60;99.90;;;;;;6170158;23;20397;-72
2023/08/06 04:13:18;;;;;;;3.30;3.00;;;14.60;99.90;;;;;;6194442;23;20484;-71
2023/08/06 04:15:44;;;;;;;4.30;3.00;;;14.60;99.90;;;;;;6168823;23;20441;-72
2023/08/06 04:18:10;;;;;;;4.63;2.73;;;14.60;99.90;;;;;;6170669;23;20854;-73
2023/08/06 04:20:45;;;;;;;3.70;2.67;;;14.60;99.90;;;;;;6194852;23;20169;-73
2023/08/06 04:23:11;;;;;;;5.27;2.87;;;14.60;99.90;;;;;;6170368;23;20142;-73
2023/08/06 04:25:37;;;;;;;4.10;3.20;;;14.60;99.90;;;;;;6170200;23;20417;-71
2023/08/06 04:28:03;;;;;;;4.70;3.40;;;14.60;99.90;;;;;;6145658;23;20445;-73
2023/08/06 04:30:29;;;;;;;6.43;2.93;;;14.60;99.90;;;;;;6171196;23;20180;-72
2023/08/06 04:32:56;;;;;;;3.90;3.33;;;14.60;99.90;;;;;;6196840;23;20141;-73
2023/08/06 04:35:22;;;;;;;3.60;2.70;;;14.60;99.90;;;;;;6198280;23;20405;-73
2023/08/06 04:37:48;;;;;;;4.80;3.33;;;14.60;99.90;;;;;;6172211;23;20366;-73
2023/08/06 04:40:14;;;;;;;4.83;3.60;;;14.70;99.90;;;;;;6170999;23;20227;-72
2023/08/06 04:42:39;;;;;;;5.47;3.17;;;14.70;99.90;;;;;;6147114;23;20370;-74
2023/08/06 04:45:05;;;;;;;4.47;3.13;;;14.80;99.90;;;;;;6169429;23;20147;-72
2023/08/06 04:47:31;;;;;;;3.80;3.20;;;14.80;99.90;;;;;;6169253;23;20150;-73
2023/08/06 04:49:57;;;;;;;6.30;3.83;;;14.80;99.90;;;;;;6138677;23;20485;-72
2023/08/06 04:52:23;;;;;;;4.63;3.20;;;14.90;99.90;;;;;;6139440;23;20509;-71
2023/08/06 04:54:48;;;;;;;4.00;3.40;;;14.90;99.90;;;;;;6163629;23;20164;-72
2023/08/06 04:57:14;;;;;;;6.10;3.30;;;14.90;99.90;;;;;;6137743;23;20131;-73
2023/08/06 04:59:39;;;;;;;3.83;3.43;;;14.90;99.90;;;;;;6138433;23;20190;-71
2023/08/06 05:02:05;;;;;;;4.07;2.90;;;14.90;99.90;;;;;;6164706;23;20159;-73
2023/08/06 05:04:31;;;;;;;5.23;3.50;;;14.90;99.90;;;;;;6164746;23;20143;-73
2023/08/06 05:06:56;;;;;;;4.53;3.47;;;14.90;99.90;;;;;;6164512;23;20207;-72
2023/08/06 05:09:22;;;;;;;4.47;3.43;;;14.90;99.90;;;;;;6137939;23;20151;-74
2023/08/06 05:11:48;;;;;;;4.40;3.13;;;14.90;99.90;;;;;;6137902;23;20139;-70
2023/08/06 05:14:14;;;;;;;5.10;3.37;;;14.90;99.90;;;;;;6163963;23;20207;-72
2023/08/06 05:16:40;;;;;;;3.30;3.00;;;15.00;99.90;;;;;;6164074;23;20783;-72
2023/08/06 05:19:05;;;;;;;3.10;2.77;;;15.00;99.90;;;;;;6164301;23;20225;-73
2023/08/06 05:21:31;;;;;;;3.80;3.13;;;15.10;99.90;;;;;;6137964;23;20151;-74
2023/08/06 05:23:56;;;;;;;4.20;3.23;;;15.30;99.90;;;;;;6164465;23;20188;-73
2023/08/06 05:26:22;;;;;;;4.90;3.40;;;15.40;99.90;;;;;;6163795;23;20472;-73
2023/08/06 05:28:47;;;;;;;3.30;2.73;;;15.50;99.90;;;;;;6113788;23;20140;-72
2023/08/06 05:31:13;;;;;;;3.90;3.00;;;15.70;99.90;;;;;;6163805;23;20166;-72
2023/08/06 05:33:39;;;;;;;4.23;3.10;;;15.70;99.90;;;;;;6137852;23;20142;-73
2023/08/06 05:36:04;;;;;;;4.23;2.73;;;15.80;99.90;;;;;;6138951;23;20159;-73
2023/08/06 05:38:30;;;;;;;4.47;3.27;;;15.80;99.90;;;;;;6138133;23;20162;-72
2023/08/06 05:40:56;;;;;;;3.00;2.70;;;15.70;99.90;;;;;;6163110;23;20166;-74
2023/08/06 05:43:22;;;;;;;4.40;2.73;;;15.70;99.90;;;;;;6163898;23;20139;-73
2023/08/06 05:45:51;;;;;;;3.57;2.90;;;15.70;99.90;;;;;;6112764;23;20382;-72
2023/08/06 05:48:17;;;;;;;3.60;2.97;;;15.60;99.90;;;;;;6114023;23;20375;-73
2023/08/06 05:50:42;;;;;;;3.90;3.17;;;15.70;99.90;;;;;;6131128;23;20895;-73
2023/08/06 05:53:08;;;;;;;3.17;2.87;;;15.70;99.90;;;;;;6143184;23;20151;-74
2023/08/06 05:55:34;;;;;;;2.67;2.40;;;15.80;99.90;;;;;;6193039;23;20548;-72
2023/08/06 05:58:00;;;;;;;3.60;2.97;;;15.80;99.90;;;;;;6167340;23;20460;-73
2023/08/06 06:00:25;;;;;;;3.73;3.30;;;15.90;99.90;;;;;;6224570;23;20393;-72
2023/08/06 06:02:51;;;;;;;4.83;3.17;;;15.90;99.90;;;;;;6227085;23;20158;-71
2023/08/06 06:05:17;;;;;;;3.30;3.00;;;16.00;99.90;;;;;;6198364;23;20193;-75
2023/08/06 06:07:42;;;;;;;3.27;2.97;;;16.00;99.90;;;;;;6199451;23;20142;-72
2023/08/06 06:10:08;;;;;;;3.20;2.50;;;16.10;99.90;;;;;;6226029;23;20174;-73
2023/08/06 06:12:34;;;;;;;3.97;3.13;;;16.10;99.90;;;;;;6226580;23;20132;-73
2023/08/06 06:15:00;;;;;;;4.13;2.40;;;16.10;99.90;;;;;;6227735;23;20402;-72
2023/08/06 06:17:29;;;;;;;3.00;2.60;;;16.10;99.90;;;;;;6230260;23;20143;-72
2023/08/06 06:19:54;;;;;;;2.83;2.37;;;16.20;99.90;;;;;;6226715;23;20395;-72
2023/08/06 06:22:20;;;;;;;3.13;2.80;;;16.20;99.90;;;;;;6226717;23;20847;-73
2023/08/06 06:24:46;;;;;;;3.53;2.67;;;16.30;99.90;;;;;;6198463;23;20425;-73
2023/08/06 06:27:11;;;;;;;3.13;2.50;;;16.40;99.90;;;;;;6225696;23;20136;-74
2023/08/06 06:29:37;;;;;;;5.00;2.70;;;16.40;99.90;;;;;;6226332;23;20214;-73
2023/08/06 06:32:03;;;;;;;3.03;2.50;;;16.50;99.90;;;;;;6174662;23;20144;-72
2023/08/06 06:34:28;;;;;;;2.73;2.37;;;16.40;99.90;;;;;;6200554;23;20192;-72
2023/08/06 06:36:54;;;;;;;2.57;2.20;;;16.40;99.90;;;;;;6228954;23;20163;-72
2023/08/06 06:39:20;;;;;;;2.40;2.20;;;16.30;99.90;;;;;;6199891;23;20140;-73
2023/08/06 06:41:46;;;;;;;1.93;1.80;;;16.20;99.90;;;;;;6225446;23;20185;-73
2023/08/06 06:44:22;;;;;;;2.17;1.60;;;16.00;99.90;;;;;;6204450;23;20441;-73
2023/08/06 06:46:48;;;;;;;1.70;1.60;;;15.90;99.90;;;;;;6235403;23;20367;-73
2023/08/06 06:49:13;;;;;;;2.73;1.40;;;15.70;99.90;;;;;;6232853;23;20126;-72
2023/08/06 06:51:39;;;;;;;2.80;1.70;;;15.70;99.90;;;;;;6231315;23;20227;-73
2023/08/06 06:54:05;;;;;;;1.80;1.47;;;15.60;99.90;;;;;;6206665;23;20166;-71
2023/08/06 06:56:30;;;;;;;1.60;1.23;;;15.50;99.90;;;;;;6180621;23;20154;-73
2023/08/06 06:58:56;;;;;;;1.50;1.00;;;15.50;99.90;;;;;;6181576;23;20137;-71
2023/08/06 07:01:21;;;;;;;1.27;1.00;;;15.50;99.90;;;;;;6206660;23;20197;-73
2023/08/06 07:03:47;;;;;;;2.07;1.50;;;15.60;99.90;;;;;;6206320;23;20134;-72
2023/08/06 07:06:13;;;;;;;1.50;1.20;;;15.70;99.90;;;;;;6181874;23;20147;-74
2023/08/06 07:08:38;;;;;;;3.03;1.87;;;15.70;99.90;;;;;;6205012;23;20144;-73
2023/08/06 07:11:05;;;;;;;1.70;1.40;;;15.70;99.90;;;;;;6178142;23;20487;-72
2023/08/06 07:13:32;;;;;;;2.00;1.43;;;15.70;99.90;;;;;;6205860;23;20184;-73
2023/08/06 07:15:58;;;;;;;4.20;1.87;;;15.70;99.90;;;;;;6204893;23;20409;-73
2023/08/06 07:18:24;;;;;;;2.30;2.10;;;15.80;99.90;;;;;;6206522;23;20359;-74
2023/08/06 07:20:51;;;;;;;2.40;1.50;;;15.80;99.90;;;;;;6182510;23;20177;-73
2023/08/06 07:23:18;;;;;;;3.40;1.60;;;15.80;99.90;;;;;;6205890;23;20380;-74
2023/08/06 07:25:44;;;;;;;1.50;1.20;;;15.80;99.90;;;;;;6231655;23;20366;-74
2023/08/06 07:28:10;;;;;;;2.57;1.40;;;15.80;99.90;;;;;;6231462;23;20385;-74
2023/08/06 07:30:39;;;;;;;2.23;1.90;;;15.80;99.90;;;;;;6204286;23;20414;-72
2023/08/06 07:33:04;;;;;;;2.30;1.60;;;15.80;99.90;;;;;;6178399;23;20632;-71
2023/08/06 07:35:30;;;;;;;1.63;1.43;;;15.80;99.90;;;;;;6176911;23;20417;-73
2023/08/06 07:37:55;;;;;;;2.20;1.40;;;15.90;99.90;;;;;;6176756;23;20178;-73
2023/08/06 07:40:21;;;;;;;2.00;1.33;;;16.00;99.90;;;;;;6201928;23;20226;-73
2023/08/06 07:42:47;;;;;;;2.20;1.70;;;16.10;99.90;;;;;;6203350;23;20148;-73
2023/08/06 07:45:14;;;;;;;2.60;1.40;;;16.10;99.90;;;;;;6205268;23;20151;-73
2023/08/06 07:47:40;;;;;;;2.93;1.43;;;16.30;99.90;;;;;;6178496;23;20799;-72
2023/08/06 07:50:06;;;;;;;1.70;1.50;;;16.60;99.90;;;;;;6201434;23;20435;-74
2023/08/06 07:52:32;;;;;;;1.77;1.53;;;16.90;99.90;;;;;;6176294;23;20140;-73
2023/08/06 07:54:58;;;;;;;2.10;1.40;;;17.30;99.90;;;;;;6226790;23;20419;-73
2023/08/06 07:57:24;;;;;;;1.40;1.03;;;17.60;99.90;;;;;;6176136;23;20195;-74
2023/08/06 07:59:50;;;;;;;2.17;1.47;;;17.90;99.90;;;;;;6178688;23;20715;-72
2023/08/06 08:02:15;;;;;;;1.57;1.30;;;18.10;99.90;;;;;;6177456;23;20495;-72
2023/08/06 08:04:41;;;;;;;1.40;1.10;;;18.20;99.90;;;;;;6176619;23;20403;-74
2023/08/06 08:07:11;;;;;;;2.77;1.27;;;18.20;99.90;;;;;;6179888;23;20140;-73
2023/08/06 08:09:36;;;;;;;1.27;1.17;;;18.10;99.90;;;;;;6179583;23;20166;-72
2023/08/06 08:12:02;;;;;;;3.27;2.70;;;18.00;99.90;;;;;;6202169;23;20440;-74
2023/08/06 08:14:28;;;;;;;1.60;1.33;;;18.00;99.90;;;;;;6228981;23;20158;-73
2023/08/06 08:16:55;;;;;;;1.80;1.10;;;18.00;99.90;;;;;;6204364;23;20200;-78
2023/08/06 08:19:21;;;;;;;1.57;1.00;;;18.00;99.90;;;;;;6201491;23;20361;-73
2023/08/06 08:21:47;;;;;;;1.80;1.13;;;18.00;99.90;;;;;;6228378;23;20389;-73
2023/08/06 08:24:12;;;;;;;1.80;1.50;;;18.10;99.90;;;;;;6202553;23;20387;-72
2023/08/06 08:26:38;;;;;;;1.53;1.17;;;18.30;99.90;;;;;;6230533;23;20135;-73
2023/08/06 08:29:04;;;;;;;2.13;0.93;;;18.50;99.90;;;;;;6205769;23;20153;-75
2023/08/06 08:31:29;;;;;;;1.30;0.90;;;18.70;99.90;;;;;;6207076;23;20176;-74
2023/08/06 08:33:55;;;;;;;1.93;1.37;;;18.90;99.90;;;;;;6233005;23;20131;-73
2023/08/06 08:36:21;;;;;;;1.70;1.10;;;19.10;99.90;;;;;;6179797;23;20170;-74
2023/08/06 08:38:47;;;;;;;2.40;1.00;;;19.20;99.90;;;;;;6207711;23;20184;-74
2023/08/06 08:41:13;;;;;;;1.40;1.17;;;19.20;99.90;;;;;;6206943;23;20388;-73
2023/08/06 08:43:41;;;;;;;3.27;1.30;;;19.10;99.90;;;;;;6184659;23;20138;-74
2023/08/06 08:46:10;;;;;;;2.60;1.47;;;19.00;99.90;;;;;;6181481;23;20172;-74
2023/08/06 08:48:36;;;;;;;1.47;1.17;;;18.90;99.90;;;;;;6207662;23;20369;-77
2023/08/06 08:51:06;;;;;;;1.73;1.07;;;18.80;99.90;;;;;;6183365;23;20501;-76
2023/08/06 08:53:32;;;;;;;2.73;1.40;;;18.70;99.90;;;;;;6182393;23;20373;-73
2023/08/06 08:55:58;;;;;;;1.93;1.60;;;18.60;99.90;;;;;;6210827;23;20452;-75
2023/08/06 08:58:24;;;;;;;2.30;1.37;;;18.60;99.90;;;;;;6160075;23;20383;-75
2023/08/06 09:00:52;;;;;;;2.20;1.53;;;18.60;99.90;;;;;;6236337;23;20420;-72
2023/08/06 09:03:19;;;;;;;2.37;1.60;;;18.60;99.90;;;;;;6147970;23;20379;-74
2023/08/06 09:05:48;;;;;;;1.77;1.40;;;18.70;99.90;;;;;;6148767;23;20374;-75
2023/08/06 09:08:19;;;;;;;3.70;2.57;;;18.70;99.90;;;;;;6151860;23;20383;-75
2023/08/06 09:10:48;;;;;;;2.20;2.00;;;18.70;99.90;;;;;;6150431;23;20383;-76
2023/08/06 09:13:14;;;;;;;1.90;1.43;;;18.70;99.90;;;;;;6174422;23;20407;-77
2023/08/06 09:15:41;;;;;;;2.27;1.67;;;18.60;99.90;;;;;;6148672;23;20418;-74
2023/08/06 09:18:11;;;;;;;2.10;1.47;;;18.60;99.90;;;;;;6171178;23;20434;-74
2023/08/06 09:20:40;;;;;;;1.90;1.50;;;18.50;99.90;;;;;;6148400;23;20426;-75
2023/08/06 09:23:10;;;;;;;1.83;1.63;;;18.50;99.90;;;;;;6177775;23;20434;-73
2023/08/06 09:25:42;;;;;;;2.40;1.87;;;18.30;99.90;;;;;;6145024;23;20815;-74
2023/08/06 09:28:08;;;;;;;1.77;1.50;;;18.20;99.90;;;;;;6143645;23;20780;-74
2023/08/06 09:30:36;;;;;;;2.03;1.67;;;18.10;99.90;;;;;;6172763;23;20387;-76
2023/08/06 09:33:03;;;;;;;2.87;2.67;;;18.10;99.90;;;;;;6171245;23;20403;-75
2023/08/06 09:35:34;;;;;;;2.63;2.37;;;18.00;99.90;;;;;;6146811;23;20447;-77
2023/08/06 09:38:10;;;;;;;2.60;2.40;;;17.90;99.90;;;;;;6127581;23;20410;-75
2023/08/06 09:41:01;;;;;;;2.50;2.30;;;17.60;99.90;;;;;;6178475;23;20368;-72
2023/08/06 09:43:27;;;;;;;2.90;2.70;;;17.20;99.90;;;;;;6205911;23;20386;-72
2023/08/06 09:45:54;;;;;;;3.03;2.73;;;17.10;99.90;;;;;;6187153;23;20371;-76
2023/08/06 09:48:24;;;;;;;2.87;2.67;;;16.90;99.90;;;;;;6185770;23;20150;-72
2023/08/06 09:50:55;;;;;;;4.13;3.53;;;16.80;99.90;;;;;;6207861;23;20427;-75
2023/08/06 09:53:22;;;;;;;5.17;4.77;;;16.70;99.90;;;;;;6234895;23;20453;-75
2023/08/06 09:55:48;;;;;;;5.43;4.93;;;16.70;99.90;;;;;;6232242;23;20405;-74
2023/08/06 09:58:14;;;;;;;6.00;5.40;;;16.60;99.90;;;;;;6180082;23;20453;-73
2023/08/06 10:00:41;;;;;;;5.60;4.83;;;16.60;99.90;;;;;;6186052;23;20168;-76
2023/08/06 10:03:09;;;;;;;5.40;4.70;;;16.60;99.90;;;;;;6136064;23;20436;-74
2023/08/06 10:05:38;;;;;;;5.10;4.47;;;16.50;99.90;;;;;;6183934;23;20405;-76
2023/08/06 10:08:07;;;;;;;4.20;3.80;;;16.40;99.90;;;;;;6208390;23;20376;-75
2023/08/06 10:10:35;;;;;;;3.10;2.67;;;16.20;99.90;;;;;;6209695;23;20401;-76
2023/08/06 10:13:03;;;;;;;1.90;1.77;;;15.90;99.90;;;;;;6159553;23;20392;-75
2023/08/06 10:15:31;;;;;;;2.97;2.50;;;15.80;99.90;;;;;;6181953;23;20418;-73
2023/08/06 10:17:59;;;;;;;4.87;1.40;;;15.60;99.90;;;;;;6205928;23;20364;-75
2023/08/06 10:20:25;;;;;;;2.83;1.40;;;15.40;99.90;;;;;;6182466;23;20468;-74
2023/08/06 10:23:07;;;;;;;1.57;1.20;;;15.30;99.90;;;;;;6180102;23;20393;-74
2023/08/06 10:25:34;;;;;;;1.60;1.30;;;15.20;99.90;;;;;;6181547;23;20157;-75
2023/08/06 10:28:13;;;;;;;1.57;1.03;;;15.10;99.90;;;;;;6185923;23;20392;-75
2023/08/06 10:30:47;;;;;;;2.60;1.30;;;15.00;99.90;;;;;;6209240;23;20407;-75
2023/08/06 10:33:13;;;;;;;2.13;1.30;;;14.80;99.90;;;;;;6209257;23;20369;-73
2023/08/06 10:35:53;;;;;;;2.10;1.20;;;14.70;99.90;;;;;;6182084;23;20436;-75
2023/08/06 10:38:25;;;;;;;1.30;1.00;;;14.70;99.90;;;;;;6182296;23;20376;-75
2023/08/06 10:40:54;;;;;;;1.50;1.23;;;14.60;99.90;;;;;;6179656;23;20397;-76
2023/08/06 10:43:32;;;;;;;1.50;1.30;;;14.50;99.90;;;;;;6210150;23;20381;-76
2023/08/06 10:46:01;;;;;;;3.67;1.80;;;14.50;99.90;;;;;;6182684;23;20387;-78
2023/08/06 10:48:41;;;;;;;1.90;1.60;;;14.40;99.90;;;;;;6176983;23;20395;-77
2023/08/06 10:51:11;;;;;;;2.07;1.73;;;14.20;99.90;;;;;;6155685;23;20451;-75
2023/08/06 10:53:43;;;;;;;3.50;2.30;;;14.10;99.90;;;;;;6183173;23;20401;-77
2023/08/06 10:56:27;;;;;;;8.13;2.40;;;14.00;99.90;;;;;;6158499;23;20427;-76
2023/08/06 10:58:57;;;;;;;5.53;2.90;;;13.90;99.90;;;;;;6178120;23;20457;-76
2023/08/06 11:01:29;;;;;;;5.73;3.70;;;13.80;99.90;;;;;;6207017;23;20455;-77
2023/08/06 11:04:01;;;;;;;4.00;3.37;;;13.80;99.90;;;;;;6181717;23;20404;-75
2023/08/06 11:06:29;;;;;;;3.33;2.67;;;13.80;99.90;;;;;;6206225;23;20367;-78
2023/08/06 11:08:56;;;;;;;8.70;3.90;;;13.80;99.90;;;;;;6182126;23;20380;-76
2023/08/06 11:11:23;;;;;;;5.47;3.10;;;13.80;99.90;;;;;;6183671;23;20383;-75
2023/08/06 11:13:51;;;;;;;5.43;3.67;;;13.70;99.90;;;;;;6181325;23;20374;-75
2023/08/06 11:16:25;;;;;;;12.50;3.40;;;13.80;99.90;;;;;;6158722;23;20447;-75
2023/08/06 11:19:00;;;;;;;8.77;3.60;;;13.70;99.90;;;;;;6179660;23;20436;-77
2023/08/06 11:21:27;;;;;;;8.40;4.13;;;13.70;99.90;;;;;;6154833;23;20394;-74
2023/08/06 11:23:54;;;;;;;7.00;4.27;;;13.70;99.90;;;;;;6179306;23;20374;-76
2023/08/06 11:26:20;;;;;;;7.27;3.93;;;13.80;99.90;;;;;;6201498;23;20371;-77
2023/08/06 11:28:47;;;;;;;13.13;4.37;;;13.80;99.90;;;;;;6153927;23;20382;-77
2023/08/06 11:31:21;;;;;;;4.63;4.20;;;13.80;99.90;;;;;;6179935;23;20477;-76
2023/08/06 11:33:53;;;;;;;10.70;4.90;;;13.90;99.90;;;;;;6201514;23;20377;-74
2023/08/06 11:36:30;;;;;;;11.13;4.70;;;14.00;99.90;;;;;;6178346;23;20477;-76
2023/08/06 11:38:57;;;;;;;7.10;4.13;;;14.00;99.90;;;;;;6178436;23;20377;-76
2023/08/06 11:41:24;;;;;;;7.17;4.60;;;14.10;99.90;;;;;;6177419;23;20463;-76
2023/08/06 11:43:51;;;;;;;7.50;4.10;;;14.20;99.90;;;;;;6154395;23;20374;-76
2023/08/06 11:46:17;;;;;;;7.90;4.53;;;14.30;99.90;;;;;;6178365;23;20127;-77
2023/08/06 11:48:59;;;;;;;12.30;4.67;;;14.40;99.90;;;;;;6203286;23;20390;-75
2023/08/06 11:51:25;;;;;;;5.13;3.30;;;14.50;99.90;;;;;;6154191;23;20470;-75
2023/08/06 11:53:57;;;;;;;6.27;3.07;;;14.50;99.90;;;;;;6175412;23;20375;-75
2023/08/06 11:56:26;;;;;;;9.03;3.27;;;14.50;99.90;;;;;;6152742;23;20837;-75
2023/08/06 11:58:56;;;;;;;5.17;2.50;;;14.50;99.90;;;;;;6156236;23;20458;-76
2023/08/06 12:01:44;;;;;;;6.93;3.00;;;14.60;99.90;;;;;;6133720;23;20415;-77
2023/08/06 12:04:14;;;;;;;5.73;2.30;;;14.80;99.90;;;;;;6182133;23;20395;-77
2023/08/06 12:07:04;;;;;;;5.60;2.17;;;15.10;99.90;;;;;;6182582;23;20378;-76
2023/08/06 12:12:24;;;;;;;4.90;1.80;;;15.50;99.90;;;;;;6175585;23;20451;-75
2023/08/06 12:14:52;;;;;;;3.30;1.87;;;15.70;99.90;;;;;;6128086;23;20422;-75
2023/08/06 12:17:18;;;;;;;4.40;2.00;;;16.10;99.90;;;;;;6175857;23;20374;-75
2023/08/06 12:19:47;;;;;;;3.80;1.70;;;16.50;99.90;;;;;;6153804;23;20400;-73
2023/08/06 12:22:13;;;;;;;2.87;1.47;;;16.80;99.90;;;;;;6127936;23;20164;-75
2023/08/06 12:24:43;;;;;;;2.27;1.30;;;16.80;99.90;;;;;;6127605;23;20383;-74
2023/08/06 12:27:09;;;;;;;1.97;1.17;;;17.00;99.90;;;;;;6129183;23;20375;-76
2023/08/06 12:29:36;;;;;;;3.23;1.70;;;17.10;99.90;;;;;;6155480;23;20401;-74
2023/08/06 12:32:03;;;;;;;7.03;1.90;;;17.20;99.90;;;;;;6117781;23;20382;-76
2023/08/06 12:34:29;;;;;;;3.80;1.40;;;17.20;99.90;;;;;;6092320;23;20420;-74
2023/08/06 12:36:55;;;;;;;3.93;1.77;;;17.00;99.90;;;;;;6094044;23;20415;-74
2023/08/06 12:39:23;;;;;;;3.70;1.87;;;16.90;99.90;;;;;;6070149;23;20140;-77
2023/08/06 12:41:49;;;;;;;4.63;1.77;;;16.70;99.90;;;;;;6094825;23;20468;-76
2023/08/06 12:44:15;;;;;;;4.97;1.77;;;16.40;99.90;;;;;;6069915;23;20364;-76
2023/08/06 12:46:41;;;;;;;4.53;2.13;;;16.20;99.90;;;;;;6117299;23;20407;-75
2023/08/06 12:49:06;;;;;;;3.10;1.77;;;16.10;99.90;;;;;;6093112;23;20388;-76
2023/08/06 12:51:34;;;;;;;4.73;2.37;;;16.00;99.90;;;;;;6093937;23;20193;-77